sensor_id;sensor_type;location;lat;lon;timestamp;P1;durP1;ratioP1;P2;durP2;ratioP2
8254;SDS011;4167;48.162;11.542;2023-02-21T00:01:37;207.23;;;52.90;;
8254;SDS011;4167;48.162;11.542;2023-02-21T00:04:21;300.33;;;57.33;;
8254;SDS011;4167;48.162;11.542;2023-02-21T00:07:05;236.33;;;53.53;;
8254;SDS011;4167;48.162;11.542;2023-02-21T00:09:50;252.50;;;54.40;;
8254;SDS011;4167;48.162;11.542;2023-02-21T00:12:35;237.17;;;54.67;;
8254;SDS011;4167;48.162;11.542;2023-02-21T00:15:19;245.87;;;55.10;;
8254;SDS011;4167;48.162;11.542;2023-02-21T00:18:03;230.73;;;54.47;;
8254;SDS011;4167;48.162;11.542;2023-02-21T00:20:47;245.37;;;54.87;;
8254;SDS011;4167;48.162;11.542;2023-02-21T00:23:32;263.40;;;56.27;;
8254;SDS011;4167;48.162;11.542;2023-02-21T00:26:16;242.73;;;54.17;;
8254;SDS011;4167;48.162;11.542;2023-02-21T00:29:02;282.13;;;56.67;;
8254;SDS011;4167;48.162;11.542;2023-02-21T00:31:46;225.00;;;53.13;;
8254;SDS011;4167;48.162;11.542;2023-02-21T00:34:30;304.20;;;57.50;;
8254;SDS011;4167;48.162;11.542;2023-02-21T00:37:14;211.93;;;53.47;;
8254;SDS011;4167;48.162;11.542;2023-02-21T00:39:58;278.17;;;55.43;;
8254;SDS011;4167;48.162;11.542;2023-02-21T00:42:42;224.73;;;53.57;;
8254;SDS011;4167;48.162;11.542;2023-02-21T00:45:28;269.80;;;55.57;;
8254;SDS011;4167;48.162;11.542;2023-02-21T00:48:12;233.60;;;53.60;;
8254;SDS011;4167;48.162;11.542;2023-02-21T00:51:02;284.83;;;56.20;;
8254;SDS011;4167;48.162;11.542;2023-02-21T00:53:46;228.77;;;54.07;;
8254;SDS011;4167;48.162;11.542;2023-02-21T00:56:30;232.10;;;54.13;;
8254;SDS011;4167;48.162;11.542;2023-02-21T00:59:14;215.30;;;52.60;;
8254;SDS011;4167;48.162;11.542;2023-02-21T01:02:00;250.37;;;54.97;;
8254;SDS011;4167;48.162;11.542;2023-02-21T01:04:44;208.53;;;52.40;;
8254;SDS011;4167;48.162;11.542;2023-02-21T01:07:28;226.20;;;53.03;;
8254;SDS011;4167;48.162;11.542;2023-02-21T01:10:12;235.77;;;55.10;;
8254;SDS011;4167;48.162;11.542;2023-02-21T01:12:56;248.90;;;54.10;;
8254;SDS011;4167;48.162;11.542;2023-02-21T01:15:40;233.60;;;53.80;;
8254;SDS011;4167;48.162;11.542;2023-02-21T01:18:26;240.20;;;54.07;;
8254;SDS011;4167;48.162;11.542;2023-02-21T01:21:11;273.93;;;55.47;;
8254;SDS011;4167;48.162;11.542;2023-02-21T01:23:55;305.90;;;57.83;;
8254;SDS011;4167;48.162;11.542;2023-02-21T01:26:39;238.90;;;54.37;;
8254;SDS011;4167;48.162;11.542;2023-02-21T01:29:23;233.47;;;54.37;;
8254;SDS011;4167;48.162;11.542;2023-02-21T01:32:07;254.90;;;55.33;;
8254;SDS011;4167;48.162;11.542;2023-02-21T01:34:53;317.47;;;57.17;;
8254;SDS011;4167;48.162;11.542;2023-02-21T01:37:38;208.50;;;52.63;;
8254;SDS011;4167;48.162;11.542;2023-02-21T01:40:22;260.20;;;55.37;;
8254;SDS011;4167;48.162;11.542;2023-02-21T01:43:12;228.30;;;53.93;;
8254;SDS011;4167;48.162;11.542;2023-02-21T01:45:56;275.93;;;56.50;;
8254;SDS011;4167;48.162;11.542;2023-02-21T01:48:41;231.43;;;53.77;;
8254;SDS011;4167;48.162;11.542;2023-02-21T01:51:27;187.37;;;51.43;;
8254;SDS011;4167;48.162;11.542;2023-02-21T01:54:16;427.63;;;63.37;;
8254;SDS011;4167;48.162;11.542;2023-02-21T01:57:01;232.27;;;53.90;;
8254;SDS011;4167;48.162;11.542;2023-02-21T01:59:46;197.47;;;52.30;;
8254;SDS011;4167;48.162;11.542;2023-02-21T02:02:36;212.00;;;52.77;;
8254;SDS011;4167;48.162;11.542;2023-02-21T02:05:22;214.43;;;53.67;;
8254;SDS011;4167;48.162;11.542;2023-02-21T02:08:07;263.57;;;55.60;;
8254;SDS011;4167;48.162;11.542;2023-02-21T02:10:57;250.03;;;55.00;;
8254;SDS011;4167;48.162;11.542;2023-02-21T02:13:52;189.97;;;52.03;;
8254;SDS011;4167;48.162;11.542;2023-02-21T02:16:27;198.17;;;52.57;;
8254;SDS011;4167;48.162;11.542;2023-02-21T02:19:07;258.13;;;55.87;;
8254;SDS011;4167;48.162;11.542;2023-02-21T02:21:57;277.23;;;56.00;;
8254;SDS011;4167;48.162;11.542;2023-02-21T02:24:47;299.53;;;57.40;;
8254;SDS011;4167;48.162;11.542;2023-02-21T02:30:54;261.50;;;55.67;;
8254;SDS011;4167;48.162;11.542;2023-02-21T02:33:40;200.10;;;51.73;;
8254;SDS011;4167;48.162;11.542;2023-02-21T02:36:16;199.30;;;52.87;;
8254;SDS011;4167;48.162;11.542;2023-02-21T02:38:49;241.87;;;54.03;;
8254;SDS011;4167;48.162;11.542;2023-02-21T02:41:23;207.37;;;53.17;;
8254;SDS011;4167;48.162;11.542;2023-02-21T02:43:53;211.80;;;53.33;;
8254;SDS011;4167;48.162;11.542;2023-02-21T02:46:22;182.30;;;51.73;;
8254;SDS011;4167;48.162;11.542;2023-02-21T02:48:52;205.10;;;52.83;;
8254;SDS011;4167;48.162;11.542;2023-02-21T02:51:23;198.70;;;52.37;;
8254;SDS011;4167;48.162;11.542;2023-02-21T02:53:51;305.20;;;58.10;;
8254;SDS011;4167;48.162;11.542;2023-02-21T02:56:17;192.87;;;52.10;;
8254;SDS011;4167;48.162;11.542;2023-02-21T02:58:49;196.47;;;52.27;;
8254;SDS011;4167;48.162;11.542;2023-02-21T03:01:19;188.83;;;51.63;;
8254;SDS011;4167;48.162;11.542;2023-02-21T03:06:51;181.97;;;51.97;;
8254;SDS011;4167;48.162;11.542;2023-02-21T03:09:28;242.40;;;54.30;;
8254;SDS011;4167;48.162;11.542;2023-02-21T03:11:58;247.73;;;54.77;;
8254;SDS011;4167;48.162;11.542;2023-02-21T03:14:28;270.17;;;55.00;;
8254;SDS011;4167;48.162;11.542;2023-02-21T03:17:00;253.10;;;54.97;;
8254;SDS011;4167;48.162;11.542;2023-02-21T03:19:28;217.87;;;53.30;;
8254;SDS011;4167;48.162;11.542;2023-02-21T03:21:58;236.13;;;53.60;;
8254;SDS011;4167;48.162;11.542;2023-02-21T03:24:26;269.17;;;55.70;;
8254;SDS011;4167;48.162;11.542;2023-02-21T03:26:54;240.40;;;54.30;;
8254;SDS011;4167;48.162;11.542;2023-02-21T03:29:22;193.17;;;52.07;;
8254;SDS011;4167;48.162;11.542;2023-02-21T03:31:51;203.17;;;52.10;;
8254;SDS011;4167;48.162;11.542;2023-02-21T03:34:20;276.83;;;55.53;;
8254;SDS011;4167;48.162;11.542;2023-02-21T03:36:47;213.93;;;53.30;;
8254;SDS011;4167;48.162;11.542;2023-02-21T03:39:15;204.43;;;52.40;;
8254;SDS011;4167;48.162;11.542;2023-02-21T03:41:42;221.90;;;53.47;;
8254;SDS011;4167;48.162;11.542;2023-02-21T03:44:08;247.60;;;54.63;;
8254;SDS011;4167;48.162;11.542;2023-02-21T03:46:35;236.50;;;53.83;;
8254;SDS011;4167;48.162;11.542;2023-02-21T03:49:01;223.33;;;52.73;;
8254;SDS011;4167;48.162;11.542;2023-02-21T03:51:27;225.27;;;53.73;;
8254;SDS011;4167;48.162;11.542;2023-02-21T03:53:54;259.57;;;55.57;;
8254;SDS011;4167;48.162;11.542;2023-02-21T03:56:22;240.07;;;53.97;;
8254;SDS011;4167;48.162;11.542;2023-02-21T03:58:48;211.77;;;53.30;;
8254;SDS011;4167;48.162;11.542;2023-02-21T04:01:15;200.53;;;52.20;;
8254;SDS011;4167;48.162;11.542;2023-02-21T04:03:41;187.23;;;50.77;;
8254;SDS011;4167;48.162;11.542;2023-02-21T04:06:08;247.57;;;53.63;;
8254;SDS011;4167;48.162;11.542;2023-02-21T04:08:34;213.77;;;52.33;;
8254;SDS011;4167;48.162;11.542;2023-02-21T04:11:01;258.63;;;55.03;;
8254;SDS011;4167;48.162;11.542;2023-02-21T04:13:29;176.70;;;50.20;;
8254;SDS011;4167;48.162;11.542;2023-02-21T04:15:55;251.37;;;54.13;;
8254;SDS011;4167;48.162;11.542;2023-02-21T04:18:22;219.70;;;52.73;;
8254;SDS011;4167;48.162;11.542;2023-02-21T04:20:48;229.83;;;53.67;;
8254;SDS011;4167;48.162;11.542;2023-02-21T04:23:16;229.60;;;53.23;;
8254;SDS011;4167;48.162;11.542;2023-02-21T04:25:42;205.57;;;51.73;;
8254;SDS011;4167;48.162;11.542;2023-02-21T04:28:09;215.10;;;52.87;;
8254;SDS011;4167;48.162;11.542;2023-02-21T04:30:37;227.07;;;52.70;;
8254;SDS011;4167;48.162;11.542;2023-02-21T04:33:03;242.67;;;53.90;;
8254;SDS011;4167;48.162;11.542;2023-02-21T04:35:30;191.20;;;51.93;;
8254;SDS011;4167;48.162;11.542;2023-02-21T04:37:56;231.30;;;53.60;;
8254;SDS011;4167;48.162;11.542;2023-02-21T04:40:23;193.17;;;52.10;;
8254;SDS011;4167;48.162;11.542;2023-02-21T04:42:49;208.53;;;52.17;;
8254;SDS011;4167;48.162;11.542;2023-02-21T04:45:16;232.73;;;54.23;;
8254;SDS011;4167;48.162;11.542;2023-02-21T04:47:44;213.90;;;52.67;;
8254;SDS011;4167;48.162;11.542;2023-02-21T04:50:13;216.33;;;53.13;;
8254;SDS011;4167;48.162;11.542;2023-02-21T04:52:39;236.10;;;54.17;;
8254;SDS011;4167;48.162;11.542;2023-02-21T04:55:06;221.33;;;53.70;;
8254;SDS011;4167;48.162;11.542;2023-02-21T04:57:33;212.40;;;52.10;;
8254;SDS011;4167;48.162;11.542;2023-02-21T04:59:59;200.80;;;53.33;;
8254;SDS011;4167;48.162;11.542;2023-02-21T05:02:26;261.73;;;55.20;;
8254;SDS011;4167;48.162;11.542;2023-02-21T05:04:55;231.20;;;54.53;;
8254;SDS011;4167;48.162;11.542;2023-02-21T05:07:21;201.80;;;52.63;;
8254;SDS011;4167;48.162;11.542;2023-02-21T05:09:48;225.50;;;54.53;;
8254;SDS011;4167;48.162;11.542;2023-02-21T05:12:15;240.40;;;54.97;;
8254;SDS011;4167;48.162;11.542;2023-02-21T05:14:41;207.03;;;52.33;;
8254;SDS011;4167;48.162;11.542;2023-02-21T05:17:08;250.17;;;55.10;;
8254;SDS011;4167;48.162;11.542;2023-02-21T05:19:34;224.90;;;53.37;;
8254;SDS011;4167;48.162;11.542;2023-02-21T05:22:02;229.90;;;54.20;;
8254;SDS011;4167;48.162;11.542;2023-02-21T05:24:31;202.00;;;52.53;;
8254;SDS011;4167;48.162;11.542;2023-02-21T05:26:57;218.93;;;53.33;;
8254;SDS011;4167;48.162;11.542;2023-02-21T05:29:24;193.07;;;51.90;;
8254;SDS011;4167;48.162;11.542;2023-02-21T05:31:51;235.53;;;53.30;;
8254;SDS011;4167;48.162;11.542;2023-02-21T05:34:18;245.40;;;54.53;;
8254;SDS011;4167;48.162;11.542;2023-02-21T05:36:44;307.80;;;58.13;;
8254;SDS011;4167;48.162;11.542;2023-02-21T05:39:12;216.90;;;53.40;;
8254;SDS011;4167;48.162;11.542;2023-02-21T05:41:44;256.97;;;54.77;;
8254;SDS011;4167;48.162;11.542;2023-02-21T05:44:11;262.07;;;55.63;;
8254;SDS011;4167;48.162;11.542;2023-02-21T05:46:38;204.83;;;53.00;;
8254;SDS011;4167;48.162;11.542;2023-02-21T05:49:04;186.17;;;51.90;;
8254;SDS011;4167;48.162;11.542;2023-02-21T05:51:32;241.93;;;55.13;;
8254;SDS011;4167;48.162;11.542;2023-02-21T05:53:59;212.57;;;53.90;;
8254;SDS011;4167;48.162;11.542;2023-02-21T05:56:27;244.73;;;55.20;;
8254;SDS011;4167;48.162;11.542;2023-02-21T05:58:54;263.90;;;55.67;;
8254;SDS011;4167;48.162;11.542;2023-02-21T06:01:20;212.63;;;53.57;;
8254;SDS011;4167;48.162;11.542;2023-02-21T06:03:47;219.07;;;53.70;;
8254;SDS011;4167;48.162;11.542;2023-02-21T06:06:13;189.13;;;52.00;;
8254;SDS011;4167;48.162;11.542;2023-02-21T06:08:41;261.63;;;55.83;;
8254;SDS011;4167;48.162;11.542;2023-02-21T06:11:08;213.93;;;53.10;;
8254;SDS011;4167;48.162;11.542;2023-02-21T06:13:36;217.80;;;53.43;;
8254;SDS011;4167;48.162;11.542;2023-02-21T06:16:03;291.07;;;57.13;;
8254;SDS011;4167;48.162;11.542;2023-02-21T06:18:30;266.83;;;55.97;;
8254;SDS011;4167;48.162;11.542;2023-02-21T06:20:57;300.77;;;57.83;;
8254;SDS011;4167;48.162;11.542;2023-02-21T06:23:23;302.50;;;57.90;;
8254;SDS011;4167;48.162;11.542;2023-02-21T06:25:50;273.93;;;57.03;;
8254;SDS011;4167;48.162;11.542;2023-02-21T06:28:17;244.23;;;55.23;;
8254;SDS011;4167;48.162;11.542;2023-02-21T06:30:45;236.77;;;55.73;;
8254;SDS011;4167;48.162;11.542;2023-02-21T06:33:11;217.37;;;53.80;;
8254;SDS011;4167;48.162;11.542;2023-02-21T06:35:38;228.50;;;54.77;;
8254;SDS011;4167;48.162;11.542;2023-02-21T06:38:04;250.13;;;57.07;;
8254;SDS011;4167;48.162;11.542;2023-02-21T06:40:31;206.80;;;55.07;;
8254;SDS011;4167;48.162;11.542;2023-02-21T06:42:57;335.10;;;62.40;;
8254;SDS011;4167;48.162;11.542;2023-02-21T06:45:24;265.20;;;59.27;;
8254;SDS011;4167;48.162;11.542;2023-02-21T06:47:52;303.40;;;61.03;;
8254;SDS011;4167;48.162;11.542;2023-02-21T06:50:18;306.87;;;62.27;;
8254;SDS011;4167;48.162;11.542;2023-02-21T06:52:45;321.53;;;63.47;;
8254;SDS011;4167;48.162;11.542;2023-02-21T06:55:12;335.40;;;64.57;;
8254;SDS011;4167;48.162;11.542;2023-02-21T06:57:39;304.60;;;63.13;;
8254;SDS011;4167;48.162;11.542;2023-02-21T07:00:06;332.47;;;65.60;;
8254;SDS011;4167;48.162;11.542;2023-02-21T07:02:33;290.77;;;63.07;;
8254;SDS011;4167;48.162;11.542;2023-02-21T07:05:01;342.80;;;65.47;;
8254;SDS011;4167;48.162;11.542;2023-02-21T07:07:28;302.80;;;63.93;;
8254;SDS011;4167;48.162;11.542;2023-02-21T07:09:54;304.60;;;64.97;;
8254;SDS011;4167;48.162;11.542;2023-02-21T07:12:21;313.13;;;66.03;;
8254;SDS011;4167;48.162;11.542;2023-02-21T07:14:47;294.20;;;65.23;;
8254;SDS011;4167;48.162;11.542;2023-02-21T07:17:14;269.17;;;63.33;;
8254;SDS011;4167;48.162;11.542;2023-02-21T07:19:40;337.63;;;69.37;;
8254;SDS011;4167;48.162;11.542;2023-02-21T07:22:08;344.50;;;69.47;;
8254;SDS011;4167;48.162;11.542;2023-02-21T07:24:35;338.23;;;69.60;;
8254;SDS011;4167;48.162;11.542;2023-02-21T07:27:01;369.30;;;71.57;;
8254;SDS011;4167;48.162;11.542;2023-02-21T07:29:28;306.07;;;68.17;;
8254;SDS011;4167;48.162;11.542;2023-02-21T07:31:54;353.57;;;71.97;;
8254;SDS011;4167;48.162;11.542;2023-02-21T07:34:22;380.57;;;72.43;;
8254;SDS011;4167;48.162;11.542;2023-02-21T07:36:48;334.10;;;70.33;;
8254;SDS011;4167;48.162;11.542;2023-02-21T07:39:16;316.87;;;68.67;;
8254;SDS011;4167;48.162;11.542;2023-02-21T07:41:43;306.10;;;68.87;;
8254;SDS011;4167;48.162;11.542;2023-02-21T07:44:09;393.47;;;75.37;;
8254;SDS011;4167;48.162;11.542;2023-02-21T07:46:35;286.77;;;67.17;;
8254;SDS011;4167;48.162;11.542;2023-02-21T07:49:02;395.07;;;74.40;;
8254;SDS011;4167;48.162;11.542;2023-02-21T07:51:28;307.70;;;69.13;;
8254;SDS011;4167;48.162;11.542;2023-02-21T07:53:56;279.63;;;67.83;;
8254;SDS011;4167;48.162;11.542;2023-02-21T07:56:23;316.13;;;70.30;;
8254;SDS011;4167;48.162;11.542;2023-02-21T07:58:50;305.27;;;69.73;;
8254;SDS011;4167;48.162;11.542;2023-02-21T08:01:16;303.97;;;69.87;;
8254;SDS011;4167;48.162;11.542;2023-02-21T08:03:43;351.47;;;74.20;;
8254;SDS011;4167;48.162;11.542;2023-02-21T08:06:09;326.17;;;70.27;;
8254;SDS011;4167;48.162;11.542;2023-02-21T08:08:36;323.90;;;70.13;;
8254;SDS011;4167;48.162;11.542;2023-02-21T08:11:03;357.60;;;73.57;;
8254;SDS011;4167;48.162;11.542;2023-02-21T08:13:31;271.70;;;66.20;;
8254;SDS011;4167;48.162;11.542;2023-02-21T08:15:57;385.73;;;72.33;;
8254;SDS011;4167;48.162;11.542;2023-02-21T08:18:24;341.13;;;68.37;;
8254;SDS011;4167;48.162;11.542;2023-02-21T08:20:51;316.63;;;67.13;;
8254;SDS011;4167;48.162;11.542;2023-02-21T08:23:18;296.00;;;65.37;;
8254;SDS011;4167;48.162;11.542;2023-02-21T08:25:45;295.03;;;65.20;;
8254;SDS011;4167;48.162;11.542;2023-02-21T08:28:11;320.47;;;66.03;;
8254;SDS011;4167;48.162;11.542;2023-02-21T08:30:40;317.70;;;65.37;;
8254;SDS011;4167;48.162;11.542;2023-02-21T08:33:06;374.47;;;67.50;;
8254;SDS011;4167;48.162;11.542;2023-02-21T08:35:33;279.90;;;62.60;;
8254;SDS011;4167;48.162;11.542;2023-02-21T08:38:00;404.90;;;70.27;;
8254;SDS011;4167;48.162;11.542;2023-02-21T08:40:28;292.07;;;63.13;;
8254;SDS011;4167;48.162;11.542;2023-02-21T08:42:55;280.40;;;62.60;;
8254;SDS011;4167;48.162;11.542;2023-02-21T08:45:23;274.63;;;62.33;;
8254;SDS011;4167;48.162;11.542;2023-02-21T08:47:52;324.40;;;64.57;;
8254;SDS011;4167;48.162;11.542;2023-02-21T08:50:18;268.30;;;61.20;;
8254;SDS011;4167;48.162;11.542;2023-02-21T08:52:46;269.50;;;61.20;;
8254;SDS011;4167;48.162;11.542;2023-02-21T08:55:13;244.67;;;60.97;;
8254;SDS011;4167;48.162;11.542;2023-02-21T08:57:39;236.50;;;60.67;;
8254;SDS011;4167;48.162;11.542;2023-02-21T09:00:06;291.40;;;63.00;;
8254;SDS011;4167;48.162;11.542;2023-02-21T09:02:34;238.87;;;59.77;;
8254;SDS011;4167;48.162;11.542;2023-02-21T09:05:05;345.57;;;70.50;;
8254;SDS011;4167;48.162;11.542;2023-02-21T09:07:32;202.20;;;57.43;;
8254;SDS011;4167;48.162;11.542;2023-02-21T09:09:59;309.03;;;63.70;;
8254;SDS011;4167;48.162;11.542;2023-02-21T09:12:26;236.13;;;59.43;;
8254;SDS011;4167;48.162;11.542;2023-02-21T09:14:52;298.73;;;62.57;;
8254;SDS011;4167;48.162;11.542;2023-02-21T09:17:19;236.87;;;58.90;;
8254;SDS011;4167;48.162;11.542;2023-02-21T09:19:45;194.03;;;56.77;;
8254;SDS011;4167;48.162;11.542;2023-02-21T09:22:13;194.90;;;56.30;;
8254;SDS011;4167;48.162;11.542;2023-02-21T09:24:40;230.37;;;58.07;;
8254;SDS011;4167;48.162;11.542;2023-02-21T09:27:07;288.80;;;61.87;;
8254;SDS011;4167;48.162;11.542;2023-02-21T09:29:34;210.90;;;56.97;;
8254;SDS011;4167;48.162;11.542;2023-02-21T09:32:01;255.40;;;60.10;;
8254;SDS011;4167;48.162;11.542;2023-02-21T09:34:28;268.57;;;60.73;;
8254;SDS011;4167;48.162;11.542;2023-02-21T09:36:55;319.47;;;63.93;;
8254;SDS011;4167;48.162;11.542;2023-02-21T09:39:23;209.40;;;57.47;;
8254;SDS011;4167;48.162;11.542;2023-02-21T09:41:49;256.10;;;59.87;;
8254;SDS011;4167;48.162;11.542;2023-02-21T09:44:18;320.37;;;63.43;;
8254;SDS011;4167;48.162;11.542;2023-02-21T09:46:46;269.93;;;61.17;;
8254;SDS011;4167;48.162;11.542;2023-02-21T09:49:16;243.50;;;59.27;;
8254;SDS011;4167;48.162;11.542;2023-02-21T09:51:46;233.23;;;58.63;;
8254;SDS011;4167;48.162;11.542;2023-02-21T09:54:18;279.63;;;61.13;;
8254;SDS011;4167;48.162;11.542;2023-02-21T09:56:51;262.90;;;59.83;;
8254;SDS011;4167;48.162;11.542;2023-02-21T09:59:17;237.43;;;58.47;;
8254;SDS011;4167;48.162;11.542;2023-02-21T10:01:46;259.07;;;60.07;;
8254;SDS011;4167;48.162;11.542;2023-02-21T10:04:20;313.97;;;63.23;;
8254;SDS011;4167;48.162;11.542;2023-02-21T10:06:53;288.00;;;62.90;;
8254;SDS011;4167;48.162;11.542;2023-02-21T10:09:26;319.20;;;63.63;;
8254;SDS011;4167;48.162;11.542;2023-02-21T10:12:04;283.90;;;61.53;;
8254;SDS011;4167;48.162;11.542;2023-02-21T10:14:36;231.73;;;58.67;;
8254;SDS011;4167;48.162;11.542;2023-02-21T10:17:22;258.07;;;60.17;;
8254;SDS011;4167;48.162;11.542;2023-02-21T10:19:53;225.63;;;57.67;;
8254;SDS011;4167;48.162;11.542;2023-02-21T10:22:21;250.27;;;59.73;;
8254;SDS011;4167;48.162;11.542;2023-02-21T10:24:52;244.53;;;59.67;;
8254;SDS011;4167;48.162;11.542;2023-02-21T10:27:20;233.57;;;58.87;;
8254;SDS011;4167;48.162;11.542;2023-02-21T10:29:50;274.03;;;61.33;;
8254;SDS011;4167;48.162;11.542;2023-02-21T10:32:19;233.30;;;59.33;;
8254;SDS011;4167;48.162;11.542;2023-02-21T10:34:46;226.27;;;58.60;;
8254;SDS011;4167;48.162;11.542;2023-02-21T10:37:25;281.43;;;61.43;;
8254;SDS011;4167;48.162;11.542;2023-02-21T10:40:01;257.97;;;64.17;;
8254;SDS011;4167;48.162;11.542;2023-02-21T10:42:33;200.83;;;57.63;;
8254;SDS011;4167;48.162;11.542;2023-02-21T10:45:01;279.83;;;61.73;;
8254;SDS011;4167;48.162;11.542;2023-02-21T10:47:32;233.77;;;59.20;;
8254;SDS011;4167;48.162;11.542;2023-02-21T10:50:08;277.70;;;62.23;;
8254;SDS011;4167;48.162;11.542;2023-02-21T10:52:36;337.63;;;65.13;;
8254;SDS011;4167;48.162;11.542;2023-02-21T10:55:05;309.60;;;63.87;;
8254;SDS011;4167;48.162;11.542;2023-02-21T10:57:38;270.03;;;60.87;;
8254;SDS011;4167;48.162;11.542;2023-02-21T11:00:06;229.83;;;59.20;;
8254;SDS011;4167;48.162;11.542;2023-02-21T11:02:35;313.13;;;63.60;;
8254;SDS011;4167;48.162;11.542;2023-02-21T11:05:08;298.30;;;62.43;;
8254;SDS011;4167;48.162;11.542;2023-02-21T11:07:37;264.17;;;60.60;;
8254;SDS011;4167;48.162;11.542;2023-02-21T11:10:15;239.80;;;59.00;;
8254;SDS011;4167;48.162;11.542;2023-02-21T11:13:00;293.37;;;62.80;;
8254;SDS011;4167;48.162;11.542;2023-02-21T11:15:28;292.27;;;62.17;;
8254;SDS011;4167;48.162;11.542;2023-02-21T11:18:01;242.53;;;59.60;;
8254;SDS011;4167;48.162;11.542;2023-02-21T11:20:29;282.47;;;61.53;;
8254;SDS011;4167;48.162;11.542;2023-02-21T11:22:55;282.90;;;61.33;;
8254;SDS011;4167;48.162;11.542;2023-02-21T11:25:24;203.77;;;57.57;;
8254;SDS011;4167;48.162;11.542;2023-02-21T11:28:02;267.00;;;61.17;;
8254;SDS011;4167;48.162;11.542;2023-02-21T11:30:31;285.87;;;62.23;;
8254;SDS011;4167;48.162;11.542;2023-02-21T11:32:58;209.07;;;58.47;;
8254;SDS011;4167;48.162;11.542;2023-02-21T11:35:26;184.50;;;56.53;;
8254;SDS011;4167;48.162;11.542;2023-02-21T11:37:55;212.27;;;58.00;;
8254;SDS011;4167;48.162;11.542;2023-02-21T11:40:29;192.70;;;56.90;;
8254;SDS011;4167;48.162;11.542;2023-02-21T11:43:09;221.70;;;58.47;;
8254;SDS011;4167;48.162;11.542;2023-02-21T11:45:37;258.97;;;60.93;;
8254;SDS011;4167;48.162;11.542;2023-02-21T11:48:10;211.63;;;58.30;;
8254;SDS011;4167;48.162;11.542;2023-02-21T11:50:39;272.87;;;61.93;;
8254;SDS011;4167;48.162;11.542;2023-02-21T11:53:14;218.53;;;58.30;;
8254;SDS011;4167;48.162;11.542;2023-02-21T11:55:48;249.63;;;59.67;;
8254;SDS011;4167;48.162;11.542;2023-02-21T11:58:20;218.07;;;58.17;;
8254;SDS011;4167;48.162;11.542;2023-02-21T12:00:50;199.83;;;57.03;;
8254;SDS011;4167;48.162;11.542;2023-02-21T12:06:36;234.30;;;59.37;;
8254;SDS011;4167;48.162;11.542;2023-02-21T12:09:08;244.53;;;59.77;;
8254;SDS011;4167;48.162;11.542;2023-02-21T12:11:42;195.50;;;57.07;;
8254;SDS011;4167;48.162;11.542;2023-02-21T12:14:16;235.23;;;59.53;;
8254;SDS011;4167;48.162;11.542;2023-02-21T12:16:56;298.00;;;63.53;;
8254;SDS011;4167;48.162;11.542;2023-02-21T12:19:38;197.90;;;57.50;;
8254;SDS011;4167;48.162;11.542;2023-02-21T12:22:15;224.97;;;59.43;;
8254;SDS011;4167;48.162;11.542;2023-02-21T12:24:55;296.00;;;63.70;;
8254;SDS011;4167;48.162;11.542;2023-02-21T12:27:33;212.37;;;58.30;;
8254;SDS011;4167;48.162;11.542;2023-02-21T12:30:16;227.87;;;58.83;;
8254;SDS011;4167;48.162;11.542;2023-02-21T12:32:53;190.10;;;56.93;;
8254;SDS011;4167;48.162;11.542;2023-02-21T12:38:41;208.83;;;57.97;;
8254;SDS011;4167;48.162;11.542;2023-02-21T12:41:16;179.37;;;56.40;;
8254;SDS011;4167;48.162;11.542;2023-02-21T12:43:53;230.13;;;59.63;;
8254;SDS011;4167;48.162;11.542;2023-02-21T12:46:24;227.13;;;59.73;;
8254;SDS011;4167;48.162;11.542;2023-02-21T12:48:54;207.80;;;58.47;;
8254;SDS011;4167;48.162;11.542;2023-02-21T12:51:25;236.53;;;59.73;;
8254;SDS011;4167;48.162;11.542;2023-02-21T12:53:56;336.27;;;66.33;;
8254;SDS011;4167;48.162;11.542;2023-02-21T12:56:27;248.00;;;60.40;;
8254;SDS011;4167;48.162;11.542;2023-02-21T12:58:58;356.90;;;67.83;;
8254;SDS011;4167;48.162;11.542;2023-02-21T13:01:29;152.73;;;55.07;;
8254;SDS011;4167;48.162;11.542;2023-02-21T13:04:00;233.90;;;60.00;;
8254;SDS011;4167;48.162;11.542;2023-02-21T13:06:32;191.50;;;57.07;;
8254;SDS011;4167;48.162;11.542;2023-02-21T13:09:05;249.93;;;60.33;;
8254;SDS011;4167;48.162;11.542;2023-02-21T13:11:36;217.70;;;59.07;;
8254;SDS011;4167;48.162;11.542;2023-02-21T13:14:08;264.43;;;61.77;;
8254;SDS011;4167;48.162;11.542;2023-02-21T13:16:36;228.60;;;60.07;;
8254;SDS011;4167;48.162;11.542;2023-02-21T13:19:03;227.10;;;59.20;;
8254;SDS011;4167;48.162;11.542;2023-02-21T13:21:35;248.40;;;60.47;;
8254;SDS011;4167;48.162;11.542;2023-02-21T13:24:13;269.30;;;61.13;;
8254;SDS011;4167;48.162;11.542;2023-02-21T13:30:00;256.80;;;61.00;;
8254;SDS011;4167;48.162;11.542;2023-02-21T13:32:29;362.23;;;67.20;;
8254;SDS011;4167;48.162;11.542;2023-02-21T13:35:04;342.30;;;66.63;;
8254;SDS011;4167;48.162;11.542;2023-02-21T13:37:33;179.10;;;56.10;;
8254;SDS011;4167;48.162;11.542;2023-02-21T13:40:03;261.37;;;61.30;;
8254;SDS011;4167;48.162;11.542;2023-02-21T13:42:33;197.53;;;57.50;;
8254;SDS011;4167;48.162;11.542;2023-02-21T13:45:08;183.77;;;56.70;;
8254;SDS011;4167;48.162;11.542;2023-02-21T13:50:43;211.17;;;58.83;;
8254;SDS011;4167;48.162;11.542;2023-02-21T13:53:12;244.70;;;59.90;;
8254;SDS011;4167;48.162;11.542;2023-02-21T13:55:50;188.53;;;57.27;;
8254;SDS011;4167;48.162;11.542;2023-02-21T13:58:38;266.87;;;61.93;;
8254;SDS011;4167;48.162;11.542;2023-02-21T14:01:20;260.50;;;61.30;;
8254;SDS011;4167;48.162;11.542;2023-02-21T14:04:41;226.33;;;59.60;;
8254;SDS011;4167;48.162;11.542;2023-02-21T14:07:09;219.83;;;59.10;;
8254;SDS011;4167;48.162;11.542;2023-02-21T14:09:37;180.77;;;57.40;;
8254;SDS011;4167;48.162;11.542;2023-02-21T14:12:05;243.83;;;61.10;;
8254;SDS011;4167;48.162;11.542;2023-02-21T14:14:33;193.77;;;58.00;;
8254;SDS011;4167;48.162;11.542;2023-02-21T14:17:05;194.67;;;57.90;;
8254;SDS011;4167;48.162;11.542;2023-02-21T14:19:34;183.50;;;57.60;;
8254;SDS011;4167;48.162;11.542;2023-02-21T14:22:03;328.53;;;67.33;;
8254;SDS011;4167;48.162;11.542;2023-02-21T14:24:35;193.93;;;58.13;;
8254;SDS011;4167;48.162;11.542;2023-02-21T14:27:03;251.17;;;62.33;;
8254;SDS011;4167;48.162;11.542;2023-02-21T14:29:35;181.50;;;56.80;;
8254;SDS011;4167;48.162;11.542;2023-02-21T14:32:22;291.33;;;64.33;;
8254;SDS011;4167;48.162;11.542;2023-02-21T14:34:51;201.67;;;58.53;;
8254;SDS011;4167;48.162;11.542;2023-02-21T14:37:21;227.83;;;59.80;;
8254;SDS011;4167;48.162;11.542;2023-02-21T14:39:50;241.77;;;61.07;;
8254;SDS011;4167;48.162;11.542;2023-02-21T14:42:22;170.00;;;56.37;;
8254;SDS011;4167;48.162;11.542;2023-02-21T14:45:20;205.20;;;58.67;;
8254;SDS011;4167;48.162;11.542;2023-02-21T14:48:03;173.27;;;56.70;;
8254;SDS011;4167;48.162;11.542;2023-02-21T14:50:35;189.23;;;57.17;;
8254;SDS011;4167;48.162;11.542;2023-02-21T14:56:06;237.33;;;60.67;;
8254;SDS011;4167;48.162;11.542;2023-02-21T14:58:42;172.57;;;56.67;;
8254;SDS011;4167;48.162;11.542;2023-02-21T15:01:20;228.73;;;59.63;;
8254;SDS011;4167;48.162;11.542;2023-02-21T15:04:01;174.07;;;56.17;;
8254;SDS011;4167;48.162;11.542;2023-02-21T15:06:33;200.40;;;58.63;;
8254;SDS011;4167;48.162;11.542;2023-02-21T15:09:10;264.47;;;62.43;;
8254;SDS011;4167;48.162;11.542;2023-02-21T15:11:37;196.93;;;57.83;;